sensor_id;sensor_type;location;lat;lon;timestamp;P1;P2;P0
72854;PMS7003;60991;51.278;22.550;2023-02-28T00:00:57;6.00;3.00;2.00
72854;PMS7003;60991;51.278;22.550;2023-02-28T00:02:27;7.25;5.00;4.25
72854;PMS7003;60991;51.278;22.550;2023-02-28T00:03:57;5.00;4.67;3.33
72854;PMS7003;60991;51.278;22.550;2023-02-28T00:05:28;6.50;6.50;4.00
72854;PMS7003;60991;51.278;22.550;2023-02-28T00:06:58;7.00;4.00;3.50
72854;PMS7003;60991;51.278;22.550;2023-02-28T00:08:29;1.67;1.67;1.00
72854;PMS7003;60991;51.278;22.550;2023-02-28T00:09:59;4.00;4.00;4.00
72854;PMS7003;60991;51.278;22.550;2023-02-28T00:11:29;4.00;3.50;3.50
72854;PMS7003;60991;51.278;22.550;2023-02-28T00:13:01;8.00;4.00;2.00
72854;PMS7003;60991;51.278;22.550;2023-02-28T00:14:33;7.00;7.00;5.00
72854;PMS7003;60991;51.278;22.550;2023-02-28T00:16:07;4.00;4.00;4.00
72854;PMS7003;60991;51.278;22.550;2023-02-28T00:17:42;5.00;5.00;5.00
72854;PMS7003;60991;51.278;22.550;2023-02-28T00:19:13;5.75;4.00;2.50
72854;PMS7003;60991;51.278;22.550;2023-02-28T00:20:43;8.25;4.25;3.00
72854;PMS7003;60991;51.278;22.550;2023-02-28T00:22:14;6.33;4.00;2.00
72854;PMS7003;60991;51.278;22.550;2023-02-28T00:23:46;7.00;3.50;3.50
72854;PMS7003;60991;51.278;22.550;2023-02-28T00:25:17;2.50;1.00;1.00
72854;PMS7003;60991;51.278;22.550;2023-02-28T00:26:50;8.00;5.50;4.75
72854;PMS7003;60991;51.278;22.550;2023-02-28T00:28:20;7.00;7.00;4.67
72854;PMS7003;60991;51.278;22.550;2023-02-28T00:29:51;5.00;5.00;4.75
72854;PMS7003;60991;51.278;22.550;2023-02-28T00:31:21;6.33;5.67;4.00
72854;PMS7003;60991;51.278;22.550;2023-02-28T00:32:52;6.25;6.25;5.00
72854;PMS7003;60991;51.278;22.550;2023-02-28T00:34:22;6.50;4.00;4.00
72854;PMS7003;60991;51.278;22.550;2023-02-28T00:36:00;7.50;6.00;5.00
72854;PMS7003;60991;51.278;22.550;2023-02-28T00:37:31;3.50;3.00;2.00
72854;PMS7003;60991;51.278;22.550;2023-02-28T00:39:02;4.50;1.50;1.50
72854;PMS7003;60991;51.278;22.550;2023-02-28T00:40:32;5.00;5.00;5.00
72854;PMS7003;60991;51.278;22.550;2023-02-28T00:42:02;7.50;5.25;4.00
72854;PMS7003;60991;51.278;22.550;2023-02-28T00:43:34;7.00;5.00;4.00
72854;PMS7003;60991;51.278;22.550;2023-02-28T00:45:05;6.25;4.50;4.00
72854;PMS7003;60991;51.278;22.550;2023-02-28T00:46:36;5.00;5.00;4.00
72854;PMS7003;60991;51.278;22.550;2023-02-28T00:48:06;8.00;6.33;4.33
72854;PMS7003;60991;51.278;22.550;2023-02-28T00:49:37;7.33;6.33;5.00
72854;PMS7003;60991;51.278;22.550;2023-02-28T00:51:07;7.67;6.33;5.00
72854;PMS7003;60991;51.278;22.550;2023-02-28T00:52:37;10.33;8.00;5.00
72854;PMS7003;60991;51.278;22.550;2023-02-28T00:54:07;7.25;7.25;5.00
72854;PMS7003;60991;51.278;22.550;2023-02-28T00:55:37;4.33;4.33;4.00
72854;PMS7003;60991;51.278;22.550;2023-02-28T00:57:08;7.67;5.67;4.67
72854;PMS7003;60991;51.278;22.550;2023-02-28T00:58:38;7.00;7.00;5.67
72854;PMS7003;60991;51.278;22.550;2023-02-28T01:00:08;8.67;7.00;5.00
72854;PMS7003;60991;51.278;22.550;2023-02-28T01:01:39;5.50;5.50;4.25
72854;PMS7003;60991;51.278;22.550;2023-02-28T01:03:11;12.00;10.75;4.75
72854;PMS7003;60991;51.278;22.550;2023-02-28T01:04:41;6.67;6.00;4.00
72854;PMS7003;60991;51.278;22.550;2023-02-28T01:06:11;7.75;7.75;4.50
72854;PMS7003;60991;51.278;22.550;2023-02-28T01:07:41;7.00;5.00;4.00
72854;PMS7003;60991;51.278;22.550;2023-02-28T01:09:11;7.00;5.00;4.33
72854;PMS7003;60991;51.278;22.550;2023-02-28T01:10:42;14.00;8.00;5.00
72854;PMS7003;60991;51.278;22.550;2023-02-28T01:12:12;4.00;4.00;2.50
72854;PMS7003;60991;51.278;22.550;2023-02-28T01:13:43;12.00;8.50;7.00
72854;PMS7003;60991;51.278;22.550;2023-02-28T01:15:14;4.25;4.25;4.00
72854;PMS7003;60991;51.278;22.550;2023-02-28T01:16:45;10.50;8.00;6.50
72854;PMS7003;60991;51.278;22.550;2023-02-28T01:18:15;8.25;8.00;6.50
72854;PMS7003;60991;51.278;22.550;2023-02-28T01:19:45;16.00;12.33;8.00
72854;PMS7003;60991;51.278;22.550;2023-02-28T01:21:16;8.00;7.00;5.00
72854;PMS7003;60991;51.278;22.550;2023-02-28T01:22:48;16.00;8.50;5.00
72854;PMS7003;60991;51.278;22.550;2023-02-28T01:24:18;11.00;8.67;7.00
72854;PMS7003;60991;51.278;22.550;2023-02-28T01:25:52;7.75;7.50;6.00
72854;PMS7003;60991;51.278;22.550;2023-02-28T01:27:22;10.75;8.00;7.00
72854;PMS7003;60991;51.278;22.550;2023-02-28T01:28:52;10.25;7.50;5.00
72854;PMS7003;60991;51.278;22.550;2023-02-28T01:30:23;9.50;8.00;7.75
72854;PMS7003;60991;51.278;22.550;2023-02-28T01:31:53;14.67;13.00;10.00
72854;PMS7003;60991;51.278;22.550;2023-02-28T01:33:23;10.33;7.67;7.00
72854;PMS7003;60991;51.278;22.550;2023-02-28T01:34:54;12.25;7.75;6.50
72854;PMS7003;60991;51.278;22.550;2023-02-28T01:36:24;12.50;10.50;7.25
72854;PMS7003;60991;51.278;22.550;2023-02-28T01:37:54;14.75;7.25;5.50
72854;PMS7003;60991;51.278;22.550;2023-02-28T01:39:25;12.00;10.00;7.25
72854;PMS7003;60991;51.278;22.550;2023-02-28T01:40:56;9.00;9.00;7.50
72854;PMS7003;60991;51.278;22.550;2023-02-28T01:42:26;11.00;11.00;7.25
72854;PMS7003;60991;51.278;22.550;2023-02-28T01:43:58;7.00;7.00;4.33
72854;PMS7003;60991;51.278;22.550;2023-02-28T01:45:47;14.00;9.00;7.00
72854;PMS7003;60991;51.278;22.550;2023-02-28T01:47:18;11.00;8.00;7.75
72854;PMS7003;60991;51.278;22.550;2023-02-28T01:48:53;13.75;8.00;6.50
72854;PMS7003;60991;51.278;22.550;2023-02-28T01:50:29;7.25;7.25;5.00
72854;PMS7003;60991;51.278;22.550;2023-02-28T01:52:04;9.00;9.00;7.00
72854;PMS7003;60991;51.278;22.550;2023-02-28T01:53:39;10.50;10.00;7.50
72854;PMS7003;60991;51.278;22.550;2023-02-28T01:55:15;9.25;8.25;7.25
72854;PMS7003;60991;51.278;22.550;2023-02-28T01:56:50;10.25;10.00;7.50
72854;PMS7003;60991;51.278;22.550;2023-02-28T01:58:24;11.50;6.00;5.50
72854;PMS7003;60991;51.278;22.550;2023-02-28T01:59:56;11.67;11.00;8.00
72854;PMS7003;60991;51.278;22.550;2023-02-28T02:01:30;10.25;8.00;7.25
72854;PMS7003;60991;51.278;22.550;2023-02-28T02:03:04;12.00;10.25;7.75
72854;PMS7003;60991;51.278;22.550;2023-02-28T02:04:38;10.50;8.50;7.75
72854;PMS7003;60991;51.278;22.550;2023-02-28T02:06:13;9.00;7.00;6.00
72854;PMS7003;60991;51.278;22.550;2023-02-28T02:07:44;16.33;10.67;7.00
72854;PMS7003;60991;51.278;22.550;2023-02-28T02:09:17;10.75;7.00;5.50
72854;PMS7003;60991;51.278;22.550;2023-02-28T02:12:43;8.50;7.50;6.00
72854;PMS7003;60991;51.278;22.550;2023-02-28T02:14:32;10.25;6.25;4.00
72854;PMS7003;60991;51.278;22.550;2023-02-28T02:16:17;10.25;8.00;5.25
72854;PMS7003;60991;51.278;22.550;2023-02-28T02:18:00;4.75;4.50;4.50
72854;PMS7003;60991;51.278;22.550;2023-02-28T02:25:39;10.00;8.00;6.00
72854;PMS7003;60991;51.278;22.550;2023-02-28T02:29:44;8.00;8.00;6.25
72854;PMS7003;60991;51.278;22.550;2023-02-28T02:36:01;8.25;8.25;6.25
72854;PMS7003;60991;51.278;22.550;2023-02-28T02:39:21;10.25;7.75;6.50
72854;PMS7003;60991;51.278;22.550;2023-02-28T02:41:08;7.50;6.50;5.00
72854;PMS7003;60991;51.278;22.550;2023-02-28T02:42:48;11.50;6.25;6.00
72854;PMS7003;60991;51.278;22.550;2023-02-28T02:44:30;7.00;7.00;5.25
72854;PMS7003;60991;51.278;22.550;2023-02-28T02:46:10;7.75;4.75;4.00
72854;PMS7003;60991;51.278;22.550;2023-02-28T02:47:45;6.50;5.50;5.25
72854;PMS7003;60991;51.278;22.550;2023-02-28T02:49:21;14.25;5.50;5.50
72854;PMS7003;60991;51.278;22.550;2023-02-28T02:50:57;7.00;7.00;5.25
72854;PMS7003;60991;51.278;22.550;2023-02-28T02:52:32;9.25;9.25;7.00
72854;PMS7003;60991;51.278;22.550;2023-02-28T02:54:08;6.50;5.50;5.25
72854;PMS7003;60991;51.278;22.550;2023-02-28T02:55:46;6.25;6.25;4.25
72854;PMS7003;60991;51.278;22.550;2023-02-28T02:57:32;8.75;7.50;5.25
72854;PMS7003;60991;51.278;22.550;2023-02-28T02:59:09;11.25;8.00;6.50
72854;PMS7003;60991;51.278;22.550;2023-02-28T03:00:44;6.00;6.00;4.00
72854;PMS7003;60991;51.278;22.550;2023-02-28T03:02:18;7.25;7.25;4.50
72854;PMS7003;60991;51.278;22.550;2023-02-28T03:03:51;7.00;6.25;4.50
72854;PMS7003;60991;51.278;22.550;2023-02-28T03:05:26;9.00;7.00;5.00
72854;PMS7003;60991;51.278;22.550;2023-02-28T03:07:00;7.00;6.75;5.00
72854;PMS7003;60991;51.278;22.550;2023-02-28T03:08:33;7.00;6.00;5.67
72854;PMS7003;60991;51.278;22.550;2023-02-28T03:10:25;6.00;6.00;5.00
72854;PMS7003;60991;51.278;22.550;2023-02-28T03:11:57;10.50;7.50;5.50
72854;PMS7003;60991;51.278;22.550;2023-02-28T03:15:24;6.75;6.75;4.75
72854;PMS7003;60991;51.278;22.550;2023-02-28T03:20:52;12.00;8.00;6.50
72854;PMS7003;60991;51.278;22.550;2023-02-28T03:26:19;8.25;8.25;7.25
72854;PMS7003;60991;51.278;22.550;2023-02-28T03:27:55;10.00;10.00;7.00
72854;PMS7003;60991;51.278;22.550;2023-02-28T03:29:33;10.75;9.75;7.50
72854;PMS7003;60991;51.278;22.550;2023-02-28T03:31:18;6.50;6.50;6.50
72854;PMS7003;60991;51.278;22.550;2023-02-28T03:32:57;10.50;8.25;7.00
72854;PMS7003;60991;51.278;22.550;2023-02-28T03:34:38;11.00;7.50;6.25
72854;PMS7003;60991;51.278;22.550;2023-02-28T03:36:14;14.25;10.00;8.00
72854;PMS7003;60991;51.278;22.550;2023-02-28T03:37:50;10.00;7.75;7.00
72854;PMS7003;60991;51.278;22.550;2023-02-28T03:39:27;6.50;6.50;5.00
72854;PMS7003;60991;51.278;22.550;2023-02-28T03:41:05;8.75;8.75;7.00
72854;PMS7003;60991;51.278;22.550;2023-02-28T03:42:41;6.00;5.50;5.25
72854;PMS7003;60991;51.278;22.550;2023-02-28T03:44:24;6.25;5.50;4.50
72854;PMS7003;60991;51.278;22.550;2023-02-28T03:45:59;9.75;9.75;6.75
72854;PMS7003;60991;51.278;22.550;2023-02-28T03:47:38;7.50;7.50;5.50
72854;PMS7003;60991;51.278;22.550;2023-02-28T03:49:14;9.00;6.50;5.00
72854;PMS7003;60991;51.278;22.550;2023-02-28T03:50:49;10.50;10.00;7.50
72854;PMS7003;60991;51.278;22.550;2023-02-28T03:52:29;8.50;8.25;7.00
72854;PMS7003;60991;51.278;22.550;2023-02-28T03:54:06;9.00;7.00;4.75
72854;PMS7003;60991;51.278;22.550;2023-02-28T03:55:43;7.50;6.75;5.25
72854;PMS7003;60991;51.278;22.550;2023-02-28T03:57:27;8.50;6.00;5.25
72854;PMS7003;60991;51.278;22.550;2023-02-28T04:00:42;5.50;5.50;5.00
72854;PMS7003;60991;51.278;22.550;2023-02-28T04:02:17;12.00;7.00;6.00
72854;PMS7003;60991;51.278;22.550;2023-02-28T04:03:47;5.00;3.75;2.25
72854;PMS7003;60991;51.278;22.550;2023-02-28T04:05:19;10.00;10.00;7.00
72854;PMS7003;60991;51.278;22.550;2023-02-28T04:06:52;14.50;9.50;8.00
72854;PMS7003;60991;51.278;22.550;2023-02-28T04:08:31;13.75;11.25;9.00
72854;PMS7003;60991;51.278;22.550;2023-02-28T04:10:01;8.00;7.50;6.50
72854;PMS7003;60991;51.278;22.550;2023-02-28T04:11:34;10.50;9.75;8.00
72854;PMS7003;60991;51.278;22.550;2023-02-28T04:13:09;10.50;8.25;5.50
72854;PMS7003;60991;51.278;22.550;2023-02-28T04:14:39;11.00;7.00;6.67
72854;PMS7003;60991;51.278;22.550;2023-02-28T04:16:09;13.00;8.33;6.00
72854;PMS7003;60991;51.278;22.550;2023-02-28T04:17:40;10.50;8.25;7.00
72854;PMS7003;60991;51.278;22.550;2023-02-28T04:19:11;8.00;8.00;6.33
72854;PMS7003;60991;51.278;22.550;2023-02-28T04:20:42;12.25;8.00;7.00
72854;PMS7003;60991;51.278;22.550;2023-02-28T04:22:13;9.00;7.67;6.00
72854;PMS7003;60991;51.278;22.550;2023-02-28T04:23:43;5.33;5.33;4.00
72854;PMS7003;60991;51.278;22.550;2023-02-28T04:25:13;13.33;10.67;8.33
72854;PMS7003;60991;51.278;22.550;2023-02-28T04:26:45;10.00;10.00;6.75
72854;PMS7003;60991;51.278;22.550;2023-02-28T04:28:17;9.00;9.00;5.25
72854;PMS7003;60991;51.278;22.550;2023-02-28T04:29:47;11.33;8.33;7.00
72854;PMS7003;60991;51.278;22.550;2023-02-28T04:31:17;10.00;10.00;8.00
72854;PMS7003;60991;51.278;22.550;2023-02-28T04:32:47;13.00;9.67;7.00
72854;PMS7003;60991;51.278;22.550;2023-02-28T04:34:18;8.00;8.00;7.00
72854;PMS7003;60991;51.278;22.550;2023-02-28T04:35:48;9.75;9.50;6.75
72854;PMS7003;60991;51.278;22.550;2023-02-28T04:37:27;15.00;10.00;8.50
72854;PMS7003;60991;51.278;22.550;2023-02-28T04:38:57;12.00;8.00;7.67
72854;PMS7003;60991;51.278;22.550;2023-02-28T04:40:27;7.67;7.67;6.00
72854;PMS7003;60991;51.278;22.550;2023-02-28T04:41:58;15.50;10.00;8.25
72854;PMS7003;60991;51.278;22.550;2023-02-28T04:43:28;14.33;11.33;8.33
72854;PMS7003;60991;51.278;22.550;2023-02-28T04:44:59;10.25;9.25;7.25
72854;PMS7003;60991;51.278;22.550;2023-02-28T04:46:29;13.67;11.33;7.00
72854;PMS7003;60991;51.278;22.550;2023-02-28T04:47:59;10.33;9.67;7.67
72854;PMS7003;60991;51.278;22.550;2023-02-28T04:49:29;10.00;9.67;7.67
72854;PMS7003;60991;51.278;22.550;2023-02-28T04:51:04;7.25;6.00;4.75
72854;PMS7003;60991;51.278;22.550;2023-02-28T04:52:36;8.25;7.00;5.50
72854;PMS7003;60991;51.278;22.550;2023-02-28T04:54:07;14.67;11.67;8.33
72854;PMS7003;60991;51.278;22.550;2023-02-28T04:55:37;11.25;11.00;8.25
72854;PMS7003;60991;51.278;22.550;2023-02-28T04:57:07;8.67;8.67;7.00
72854;PMS7003;60991;51.278;22.550;2023-02-28T04:58:38;16.00;12.33;10.00
72854;PMS7003;60991;51.278;22.550;2023-02-28T05:00:09;9.50;9.50;8.25
72854;PMS7003;60991;51.278;22.550;2023-02-28T05:01:39;16.25;14.50;8.50
72854;PMS7003;60991;51.278;22.550;2023-02-28T05:03:10;16.33;12.67;9.67
72854;PMS7003;60991;51.278;22.550;2023-02-28T05:04:40;14.75;13.50;10.25
72854;PMS7003;60991;51.278;22.550;2023-02-28T05:06:11;16.00;11.33;7.67
72854;PMS7003;60991;51.278;22.550;2023-02-28T05:07:42;21.75;17.50;10.50
72854;PMS7003;60991;51.278;22.550;2023-02-28T05:09:12;28.33;22.00;15.00
72854;PMS7003;60991;51.278;22.550;2023-02-28T05:10:43;23.00;20.00;13.67
72854;PMS7003;60991;51.278;22.550;2023-02-28T05:12:13;19.00;19.00;15.33
72854;PMS7003;60991;51.278;22.550;2023-02-28T05:13:43;23.67;22.00;15.67
72854;PMS7003;60991;51.278;22.550;2023-02-28T05:15:14;36.00;26.75;16.00
72854;PMS7003;60991;51.278;22.550;2023-02-28T05:16:45;34.75;25.50;18.00
72854;PMS7003;60991;51.278;22.550;2023-02-28T05:18:15;59.33;45.00;28.67
72854;PMS7003;60991;51.278;22.550;2023-02-28T05:19:45;78.67;57.33;33.33
72854;PMS7003;60991;51.278;22.550;2023-02-28T05:21:29;83.33;60.67;36.00
72854;PMS7003;60991;51.278;22.550;2023-02-28T05:23:01;107.25;75.25;45.25
72854;PMS7003;60991;51.278;22.550;2023-02-28T05:24:32;114.75;79.25;45.75
72854;PMS7003;60991;51.278;22.550;2023-02-28T05:26:02;122.33;90.00;52.00
72854;PMS7003;60991;51.278;22.550;2023-02-28T05:27:32;128.67;103.00;51.00
72854;PMS7003;60991;51.278;22.550;2023-02-28T05:29:03;112.25;87.25;51.00
72854;PMS7003;60991;51.278;22.550;2023-02-28T05:30:33;107.50;79.00;46.00
72854;PMS7003;60991;51.278;22.550;2023-02-28T05:32:03;103.33;75.00;46.00
72854;PMS7003;60991;51.278;22.550;2023-02-28T05:33:34;92.75;69.00;40.00
72854;PMS7003;60991;51.278;22.550;2023-02-28T05:35:04;90.33;67.00;40.67
72854;PMS7003;60991;51.278;22.550;2023-02-28T05:36:36;69.50;51.00;31.25
72854;PMS7003;60991;51.278;22.550;2023-02-28T05:38:06;62.00;48.50;27.75
72854;PMS7003;60991;51.278;22.550;2023-02-28T05:39:37;30.75;23.50;15.00
72854;PMS7003;60991;51.278;22.550;2023-02-28T05:41:08;31.50;28.00;20.75
72854;PMS7003;60991;51.278;22.550;2023-02-28T05:42:39;32.00;27.50;18.00
72854;PMS7003;60991;51.278;22.550;2023-02-28T05:44:10;24.33;23.33;18.00
72854;PMS7003;60991;51.278;22.550;2023-02-28T05:45:40;22.75;21.50;15.50
72854;PMS7003;60991;51.278;22.550;2023-02-28T05:47:10;30.33;24.67;17.33
72854;PMS7003;60991;51.278;22.550;2023-02-28T05:48:41;27.67;25.00;15.00
72854;PMS7003;60991;51.278;22.550;2023-02-28T05:50:12;32.75;25.75;18.25
72854;PMS7003;60991;51.278;22.550;2023-02-28T05:51:43;33.67;20.67;13.67
72854;PMS7003;60991;51.278;22.550;2023-02-28T05:53:13;30.00;22.67;15.67
72854;PMS7003;60991;51.278;22.550;2023-02-28T05:54:44;27.00;22.75;15.00
72854;PMS7003;60991;51.278;22.550;2023-02-28T05:56:15;22.50;18.50;13.00
72854;PMS7003;60991;51.278;22.550;2023-02-28T05:57:46;21.67;21.67;15.33
72854;PMS7003;60991;51.278;22.550;2023-02-28T05:59:16;19.00;16.00;12.00
72854;PMS7003;60991;51.278;22.550;2023-02-28T06:00:46;28.67;18.33;9.33
72854;PMS7003;60991;51.278;22.550;2023-02-28T06:02:17;24.25;19.25;12.50
72854;PMS7003;60991;51.278;22.550;2023-02-28T06:03:47;23.50;20.50;15.50
72854;PMS7003;60991;51.278;22.550;2023-02-28T06:05:18;18.25;13.50;12.00
72854;PMS7003;60991;51.278;22.550;2023-02-28T06:06:48;13.25;13.00;10.00
72854;PMS7003;60991;51.278;22.550;2023-02-28T06:08:19;13.75;11.25;8.25
72854;PMS7003;60991;51.278;22.550;2023-02-28T06:09:50;19.25;15.00;12.50
72854;PMS7003;60991;51.278;22.550;2023-02-28T06:11:20;28.33;20.67;14.67
72854;PMS7003;60991;51.278;22.550;2023-02-28T06:12:51;17.75;12.50;9.00
72854;PMS7003;60991;51.278;22.550;2023-02-28T06:14:21;19.00;15.67;12.00
72854;PMS7003;60991;51.278;22.550;2023-02-28T06:15:51;18.50;15.75;13.00
72854;PMS7003;60991;51.278;22.550;2023-02-28T06:17:21;18.67;18.67;13.00
72854;PMS7003;60991;51.278;22.550;2023-02-28T06:18:51;16.67;16.67;16.00
72854;PMS7003;60991;51.278;22.550;2023-02-28T06:20:22;23.00;17.50;14.25
72854;PMS7003;60991;51.278;22.550;2023-02-28T06:21:54;19.00;17.25;12.75
72854;PMS7003;60991;51.278;22.550;2023-02-28T06:23:25;29.25;23.50;15.25
72854;PMS7003;60991;51.278;22.550;2023-02-28T06:24:55;29.00;21.00;15.75
72854;PMS7003;60991;51.278;22.550;2023-02-28T06:26:25;28.67;17.33;13.00
72854;PMS7003;60991;51.278;22.550;2023-02-28T06:27:56;25.50;18.50;10.75
72854;PMS7003;60991;51.278;22.550;2023-02-28T06:29:26;15.00;13.00;7.75
72854;PMS7003;60991;51.278;22.550;2023-02-28T06:30:57;15.67;15.67;11.00
72854;PMS7003;60991;51.278;22.550;2023-02-28T06:32:27;16.75;13.25;11.00
72854;PMS7003;60991;51.278;22.550;2023-02-28T06:33:57;18.00;14.00;10.00
72854;PMS7003;60991;51.278;22.550;2023-02-28T06:35:27;25.50;21.25;15.25
72854;PMS7003;60991;51.278;22.550;2023-02-28T06:36:58;19.00;19.00;15.67
72854;PMS7003;60991;51.278;22.550;2023-02-28T06:38:28;31.33;24.67;16.33
72854;PMS7003;60991;51.278;22.550;2023-02-28T06:39:58;29.25;24.75;18.75
72854;PMS7003;60991;51.278;22.550;2023-02-28T06:41:30;27.00;24.00;16.00
72854;PMS7003;60991;51.278;22.550;2023-02-28T06:43:00;22.25;21.25;16.50
72854;PMS7003;60991;51.278;22.550;2023-02-28T06:44:31;23.25;21.00;16.00
72854;PMS7003;60991;51.278;22.550;2023-02-28T06:46:02;26.00;21.00;15.67
72854;PMS7003;60991;51.278;22.550;2023-02-28T06:47:35;18.75;17.00;15.00
72854;PMS7003;60991;51.278;22.550;2023-02-28T06:49:06;17.50;16.50;13.00
72854;PMS7003;60991;51.278;22.550;2023-02-28T06:50:36;16.25;13.25;10.50
72854;PMS7003;60991;51.278;22.550;2023-02-28T06:52:06;17.33;17.33;12.67
72854;PMS7003;60991;51.278;22.550;2023-02-28T06:53:37;19.25;16.00;12.75
72854;PMS7003;60991;51.278;22.550;2023-02-28T06:55:07;20.67;20.67;13.00
72854;PMS7003;60991;51.278;22.550;2023-02-28T06:56:38;17.25;15.25;10.75
72854;PMS7003;60991;51.278;22.550;2023-02-28T06:58:09;14.25;9.50;7.00
72854;PMS7003;60991;51.278;22.550;2023-02-28T06:59:39;13.75;10.75;8.25
72854;PMS7003;60991;51.278;22.550;2023-02-28T07:01:09;12.33;8.33;7.00
72854;PMS7003;60991;51.278;22.550;2023-02-28T07:02:40;11.67;10.33;8.67
72854;PMS7003;60991;51.278;22.550;2023-02-28T07:04:10;12.33;7.33;4.33
72854;PMS7003;60991;51.278;22.550;2023-02-28T07:05:40;13.00;10.00;8.50
72854;PMS7003;60991;51.278;22.550;2023-02-28T07:07:10;14.00;9.33;7.00
72854;PMS7003;60991;51.278;22.550;2023-02-28T07:08:40;13.33;12.67;10.00
72854;PMS7003;60991;51.278;22.550;2023-02-28T07:10:11;11.67;8.00;6.00
72854;PMS7003;60991;51.278;22.550;2023-02-28T07:11:41;12.75;10.75;7.25
72854;PMS7003;60991;51.278;22.550;2023-02-28T07:13:12;14.33;11.00;9.33
72854;PMS7003;60991;51.278;22.550;2023-02-28T07:14:42;15.33;10.00;8.00
72854;PMS7003;60991;51.278;22.550;2023-02-28T07:16:12;11.00;7.67;6.33
72854;PMS7003;60991;51.278;22.550;2023-02-28T07:17:42;14.25;13.00;7.00
72854;PMS7003;60991;51.278;22.550;2023-02-28T07:19:13;4.00;4.00;4.00
72854;PMS7003;60991;51.278;22.550;2023-02-28T07:20:43;10.00;8.00;7.00
72854;PMS7003;60991;51.278;22.550;2023-02-28T07:22:13;8.67;7.67;6.33
72854;PMS7003;60991;51.278;22.550;2023-02-28T07:23:43;7.67;6.33;5.67
72854;PMS7003;60991;51.278;22.550;2023-02-28T07:25:13;11.75;10.00;6.50
72854;PMS7003;60991;51.278;22.550;2023-02-28T07:26:44;10.75;9.00;7.00
72854;PMS7003;60991;51.278;22.550;2023-02-28T07:28:14;12.00;8.50;6.50
72854;PMS7003;60991;51.278;22.550;2023-02-28T07:29:44;5.00;5.00;4.00
72854;PMS7003;60991;51.278;22.550;2023-02-28T07:31:15;7.00;7.00;5.00
72854;PMS7003;60991;51.278;22.550;2023-02-28T07:32:46;8.25;7.50;7.00
72854;PMS7003;60991;51.278;22.550;2023-02-28T07:34:16;13.25;8.50;5.00
72854;PMS7003;60991;51.278;22.550;2023-02-28T07:35:46;11.67;7.00;5.00
72854;PMS7003;60991;51.278;22.550;2023-02-28T07:37:17;9.50;7.75;4.75
72854;PMS7003;60991;51.278;22.550;2023-02-28T07:38:47;11.50;8.50;7.75
72854;PMS7003;60991;51.278;22.550;2023-02-28T07:40:18;12.50;10.25;7.50
72854;PMS7003;60991;51.278;22.550;2023-02-28T07:41:48;14.00;8.00;7.00
72854;PMS7003;60991;51.278;22.550;2023-02-28T07:43:18;5.00;5.00;5.00
72854;PMS7003;60991;51.278;22.550;2023-02-28T07:44:49;8.00;7.33;5.00
72854;PMS7003;60991;51.278;22.550;2023-02-28T07:46:19;5.00;5.00;4.00
72854;PMS7003;60991;51.278;22.550;2023-02-28T07:47:49;10.33;10.33;7.67
72854;PMS7003;60991;51.278;22.550;2023-02-28T07:49:19;10.25;10.25;7.75
72854;PMS7003;60991;51.278;22.550;2023-02-28T07:50:56;16.50;13.00;8.50
72854;PMS7003;60991;51.278;22.550;2023-02-28T07:52:26;14.00;14.00;10.25
72854;PMS7003;60991;51.278;22.550;2023-02-28T07:53:57;9.75;9.50;7.75
72854;PMS7003;60991;51.278;22.550;2023-02-28T07:55:27;11.75;11.25;10.25
72854;PMS7003;60991;51.278;22.550;2023-02-28T07:56:57;16.00;10.67;8.00
72854;PMS7003;60991;51.278;22.550;2023-02-28T07:58:28;17.33;14.67;10.00
72854;PMS7003;60991;51.278;22.550;2023-02-28T07:59:59;19.75;14.50;10.00
72854;PMS7003;60991;51.278;22.550;2023-02-28T08:01:29;12.75;9.50;8.00
72854;PMS7003;60991;51.278;22.550;2023-02-28T08:02:59;14.50;11.25;8.00
72854;PMS7003;60991;51.278;22.550;2023-02-28T08:04:31;12.00;11.00;7.00
72854;PMS7003;60991;51.278;22.550;2023-02-28T08:06:05;14.50;12.75;8.00
72854;PMS7003;60991;51.278;22.550;2023-02-28T08:07:37;11.00;7.00;5.00
72854;PMS7003;60991;51.278;22.550;2023-02-28T08:09:07;14.67;11.67;8.67
72854;PMS7003;60991;51.278;22.550;2023-02-28T08:10:37;17.00;10.67;9.33
72854;PMS7003;60991;51.278;22.550;2023-02-28T08:12:08;10.50;8.50;7.00
72854;PMS7003;60991;51.278;22.550;2023-02-28T08:13:39;12.75;10.75;9.00
72854;PMS7003;60991;51.278;22.550;2023-02-28T08:15:09;15.33;9.67;9.33
72854;PMS7003;60991;51.278;22.550;2023-02-28T08:16:40;13.25;11.00;8.50
72854;PMS7003;60991;51.278;22.550;2023-02-28T08:18:10;11.00;8.50;7.00
72854;PMS7003;60991;51.278;22.550;2023-02-28T08:19:40;10.33;8.67;8.00
72854;PMS7003;60991;51.278;22.550;2023-02-28T08:21:10;15.00;11.25;10.00
72854;PMS7003;60991;51.278;22.550;2023-02-28T08:22:41;15.25;12.50;9.50
72854;PMS7003;60991;51.278;22.550;2023-02-28T08:24:11;16.00;13.50;8.00
72854;PMS7003;60991;51.278;22.550;2023-02-28T08:25:41;12.25;10.25;8.50
72854;PMS7003;60991;51.278;22.550;2023-02-28T08:27:11;17.67;11.67;9.33
72854;PMS7003;60991;51.278;22.550;2023-02-28T08:28:42;16.67;13.00;10.00
72854;PMS7003;60991;51.278;22.550;2023-02-28T08:30:12;11.00;7.67;6.33
72854;PMS7003;60991;51.278;22.550;2023-02-28T08:31:44;14.75;12.75;10.75
72854;PMS7003;60991;51.278;22.550;2023-02-28T08:33:14;18.67;13.33;11.00
72854;PMS7003;60991;51.278;22.550;2023-02-28T08:34:44;15.25;15.25;10.00
72854;PMS7003;60991;51.278;22.550;2023-02-28T08:36:14;8.00;8.00;5.67
72854;PMS7003;60991;51.278;22.550;2023-02-28T08:37:47;14.00;12.00;8.00
72854;PMS7003;60991;51.278;22.550;2023-02-28T08:39:20;19.00;10.25;7.00
72854;PMS7003;60991;51.278;22.550;2023-02-28T08:40:56;11.00;8.00;6.33
72854;PMS7003;60991;51.278;22.550;2023-02-28T08:42:28;12.25;10.00;7.00
72854;PMS7003;60991;51.278;22.550;2023-02-28T08:43:58;17.33;15.33;10.67
72854;PMS7003;60991;51.278;22.550;2023-02-28T08:45:28;9.75;8.50;7.00
72854;PMS7003;60991;51.278;22.550;2023-02-28T08:46:58;13.75;12.25;8.00
72854;PMS7003;60991;51.278;22.550;2023-02-28T08:48:29;11.00;11.00;8.75
72854;PMS7003;60991;51.278;22.550;2023-02-28T08:50:01;16.00;12.25;9.00
72854;PMS7003;60991;51.278;22.550;2023-02-28T08:51:32;11.00;10.75;10.00
72854;PMS7003;60991;51.278;22.550;2023-02-28T08:53:02;12.50;12.25;9.25
72854;PMS7003;60991;51.278;22.550;2023-02-28T08:54:32;16.50;11.50;9.00
72854;PMS7003;60991;51.278;22.550;2023-02-28T08:56:04;17.00;11.00;8.00
72854;PMS7003;60991;51.278;22.550;2023-02-28T08:57:36;14.75;11.25;8.00
72854;PMS7003;60991;51.278;22.550;2023-02-28T08:59:08;13.33;8.33;7.00
72854;PMS7003;60991;51.278;22.550;2023-02-28T09:00:39;14.00;10.75;8.75
72854;PMS7003;60991;51.278;22.550;2023-02-28T09:02:11;17.00;15.00;10.33
72854;PMS7003;60991;51.278;22.550;2023-02-28T09:03:42;11.75;11.00;8.00
72854;PMS7003;60991;51.278;22.550;2023-02-28T09:05:13;12.75;11.25;8.50
72854;PMS7003;60991;51.278;22.550;2023-02-28T09:06:44;12.33;12.33;9.33
72854;PMS7003;60991;51.278;22.550;2023-02-28T09:08:14;12.33;9.33;8.00
72854;PMS7003;60991;51.278;22.550;2023-02-28T09:09:44;15.00;11.00;8.00